Terminal Aerodrome Forecast
Issued by NWS

Home | Current Version | Previous Version | Text Only | Print | Product List | Glossary On
Versions: 1 2 3 4 5 6 7 8 9 10 11 12 13 14 15 16
000
FTUS44 KCRP 261132
TAFALI
TAF
KALI 261132Z 2612/2712 14010KT 4SM BR SCT007 BKN015
      TEMPO 2612/2614 3SM BR BKN007 OVC015
     FM261400 15013KT P6SM VCSH SCT012 BKN025
     FM261900 14012KT P6SM SCT025 BKN040
     FM270100 13009KT P6SM SCT025
     FM270400 15006KT P6SM BKN015
     FM270900 13006KT 5SM BR BKN009=

USA.gov is the U.S. government's official web portal to all federal, state and local government web resources and services.